sensor_id;sensor_type;location;lat;lon;timestamp;P1;durP1;ratioP1;P2;durP2;ratioP2
23175;SDS011;19910;42.652;23.332;2023-03-08T00:02:06;4.63;;;2.17;;
23175;SDS011;19910;42.652;23.332;2023-03-08T00:04:32;3.03;;;2.08;;
23175;SDS011;19910;42.652;23.332;2023-03-08T00:06:59;2.80;;;2.00;;
23175;SDS011;19910;42.652;23.332;2023-03-08T00:09:26;4.35;;;2.15;;
23175;SDS011;19910;42.652;23.332;2023-03-08T00:11:53;3.25;;;1.75;;
23175;SDS011;19910;42.652;23.332;2023-03-08T00:14:20;3.63;;;2.10;;
23175;SDS011;19910;42.652;23.332;2023-03-08T00:16:48;3.13;;;1.98;;
23175;SDS011;19910;42.652;23.332;2023-03-08T00:19:15;3.00;;;1.85;;
23175;SDS011;19910;42.652;23.332;2023-03-08T00:21:42;3.00;;;1.65;;
23175;SDS011;19910;42.652;23.332;2023-03-08T00:24:09;3.50;;;1.55;;
23175;SDS011;19910;42.652;23.332;2023-03-08T00:26:36;4.00;;;2.15;;
23175;SDS011;19910;42.652;23.332;2023-03-08T00:29:03;3.03;;;1.88;;
23175;SDS011;19910;42.652;23.332;2023-03-08T00:31:30;4.00;;;2.10;;
23175;SDS011;19910;42.652;23.332;2023-03-08T00:33:58;4.05;;;2.47;;
23175;SDS011;19910;42.652;23.332;2023-03-08T00:36:25;5.78;;;2.25;;
23175;SDS011;19910;42.652;23.332;2023-03-08T00:38:52;4.80;;;2.55;;
23175;SDS011;19910;42.652;23.332;2023-03-08T00:41:21;2.83;;;1.65;;
23175;SDS011;19910;42.652;23.332;2023-03-08T00:43:48;5.80;;;2.50;;
23175;SDS011;19910;42.652;23.332;2023-03-08T00:46:15;9.65;;;2.25;;
23175;SDS011;19910;42.652;23.332;2023-03-08T00:48:42;4.38;;;2.33;;
23175;SDS011;19910;42.652;23.332;2023-03-08T00:51:11;5.15;;;2.35;;
23175;SDS011;19910;42.652;23.332;2023-03-08T00:53:39;6.50;;;2.80;;
23175;SDS011;19910;42.652;23.332;2023-03-08T00:56:06;5.35;;;2.45;;
23175;SDS011;19910;42.652;23.332;2023-03-08T00:58:33;4.75;;;2.13;;
23175;SDS011;19910;42.652;23.332;2023-03-08T01:01:03;3.60;;;2.20;;
23175;SDS011;19910;42.652;23.332;2023-03-08T01:03:30;3.05;;;2.10;;
23175;SDS011;19910;42.652;23.332;2023-03-08T01:05:58;3.85;;;2.60;;
23175;SDS011;19910;42.652;23.332;2023-03-08T01:08:32;3.45;;;2.10;;
23175;SDS011;19910;42.652;23.332;2023-03-08T01:10:59;4.22;;;2.08;;
23175;SDS011;19910;42.652;23.332;2023-03-08T01:13:27;4.28;;;1.95;;
23175;SDS011;19910;42.652;23.332;2023-03-08T01:15:55;3.42;;;2.38;;
23175;SDS011;19910;42.652;23.332;2023-03-08T01:18:22;3.47;;;2.08;;
23175;SDS011;19910;42.652;23.332;2023-03-08T01:20:53;3.90;;;2.00;;
23175;SDS011;19910;42.652;23.332;2023-03-08T01:23:21;3.90;;;1.80;;
23175;SDS011;19910;42.652;23.332;2023-03-08T01:25:56;5.53;;;2.28;;
23175;SDS011;19910;42.652;23.332;2023-03-08T01:28:23;5.40;;;1.88;;
23175;SDS011;19910;42.652;23.332;2023-03-08T01:30:50;3.60;;;2.28;;
23175;SDS011;19910;42.652;23.332;2023-03-08T01:33:16;5.72;;;2.35;;
23175;SDS011;19910;42.652;23.332;2023-03-08T01:35:45;3.90;;;1.85;;
23175;SDS011;19910;42.652;23.332;2023-03-08T01:38:12;5.28;;;3.72;;
23175;SDS011;19910;42.652;23.332;2023-03-08T01:40:38;6.35;;;4.18;;
23175;SDS011;19910;42.652;23.332;2023-03-08T01:43:12;7.32;;;3.95;;
23175;SDS011;19910;42.652;23.332;2023-03-08T01:48:46;10.52;;;3.83;;
23175;SDS011;19910;42.652;23.332;2023-03-08T01:51:17;9.25;;;4.32;;
23175;SDS011;19910;42.652;23.332;2023-03-08T01:53:47;7.75;;;4.45;;
23175;SDS011;19910;42.652;23.332;2023-03-08T01:56:14;8.10;;;4.20;;
23175;SDS011;19910;42.652;23.332;2023-03-08T01:58:45;8.07;;;4.43;;
23175;SDS011;19910;42.652;23.332;2023-03-08T02:01:15;9.55;;;4.55;;
23175;SDS011;19910;42.652;23.332;2023-03-08T02:03:43;7.97;;;4.40;;
23175;SDS011;19910;42.652;23.332;2023-03-08T02:06:11;8.82;;;4.95;;
23175;SDS011;19910;42.652;23.332;2023-03-08T02:08:39;8.77;;;5.03;;
23175;SDS011;19910;42.652;23.332;2023-03-08T02:11:06;11.18;;;5.05;;
23175;SDS011;19910;42.652;23.332;2023-03-08T02:13:33;9.45;;;5.43;;
23175;SDS011;19910;42.652;23.332;2023-03-08T02:16:01;9.65;;;5.13;;
23175;SDS011;19910;42.652;23.332;2023-03-08T02:18:31;9.82;;;4.82;;
23175;SDS011;19910;42.652;23.332;2023-03-08T02:20:58;8.50;;;4.47;;
23175;SDS011;19910;42.652;23.332;2023-03-08T02:23:26;9.40;;;4.43;;
23175;SDS011;19910;42.652;23.332;2023-03-08T02:25:53;4.75;;;2.80;;
23175;SDS011;19910;42.652;23.332;2023-03-08T02:28:23;3.47;;;1.73;;
23175;SDS011;19910;42.652;23.332;2023-03-08T02:30:51;5.07;;;2.58;;
23175;SDS011;19910;42.652;23.332;2023-03-08T02:33:18;3.13;;;2.17;;
23175;SDS011;19910;42.652;23.332;2023-03-08T02:35:45;6.50;;;2.67;;
23175;SDS011;19910;42.652;23.332;2023-03-08T02:38:13;5.30;;;2.30;;
23175;SDS011;19910;42.652;23.332;2023-03-08T02:40:43;6.05;;;2.28;;
23175;SDS011;19910;42.652;23.332;2023-03-08T02:43:10;5.45;;;2.65;;
23175;SDS011;19910;42.652;23.332;2023-03-08T02:45:37;6.78;;;2.55;;
23175;SDS011;19910;42.652;23.332;2023-03-08T02:48:04;3.53;;;1.77;;
23175;SDS011;19910;42.652;23.332;2023-03-08T02:50:31;4.28;;;1.92;;
23175;SDS011;19910;42.652;23.332;2023-03-08T02:53:00;4.63;;;2.20;;
23175;SDS011;19910;42.652;23.332;2023-03-08T02:55:27;6.10;;;3.10;;
23175;SDS011;19910;42.652;23.332;2023-03-08T02:57:55;3.95;;;2.50;;
23175;SDS011;19910;42.652;23.332;2023-03-08T03:00:22;4.78;;;2.55;;
23175;SDS011;19910;42.652;23.332;2023-03-08T03:02:49;5.65;;;2.53;;
23175;SDS011;19910;42.652;23.332;2023-03-08T03:05:16;5.10;;;2.65;;
23175;SDS011;19910;42.652;23.332;2023-03-08T03:07:42;5.40;;;2.58;;
23175;SDS011;19910;42.652;23.332;2023-03-08T03:10:10;11.40;;;3.40;;
23175;SDS011;19910;42.652;23.332;2023-03-08T03:12:38;6.60;;;2.80;;
23175;SDS011;19910;42.652;23.332;2023-03-08T03:15:07;7.93;;;2.92;;
23175;SDS011;19910;42.652;23.332;2023-03-08T03:17:35;5.75;;;3.00;;
23175;SDS011;19910;42.652;23.332;2023-03-08T03:20:02;5.30;;;2.85;;
23175;SDS011;19910;42.652;23.332;2023-03-08T03:22:30;7.05;;;3.75;;
23175;SDS011;19910;42.652;23.332;2023-03-08T03:24:57;5.22;;;2.60;;
23175;SDS011;19910;42.652;23.332;2023-03-08T03:27:24;9.82;;;5.30;;
23175;SDS011;19910;42.652;23.332;2023-03-08T03:29:51;8.82;;;5.80;;
23175;SDS011;19910;42.652;23.332;2023-03-08T03:32:19;7.78;;;5.10;;
23175;SDS011;19910;42.652;23.332;2023-03-08T03:34:46;10.85;;;5.18;;
23175;SDS011;19910;42.652;23.332;2023-03-08T03:37:13;8.70;;;5.15;;
23175;SDS011;19910;42.652;23.332;2023-03-08T03:39:40;9.00;;;5.22;;
23175;SDS011;19910;42.652;23.332;2023-03-08T03:42:07;9.20;;;4.55;;
23175;SDS011;19910;42.652;23.332;2023-03-08T03:44:34;10.23;;;5.63;;
23175;SDS011;19910;42.652;23.332;2023-03-08T03:47:00;2.97;;;2.25;;
23175;SDS011;19910;42.652;23.332;2023-03-08T03:49:29;4.72;;;1.67;;
23175;SDS011;19910;42.652;23.332;2023-03-08T03:51:55;6.45;;;2.45;;
23175;SDS011;19910;42.652;23.332;2023-03-08T03:54:22;10.07;;;5.22;;
23175;SDS011;19910;42.652;23.332;2023-03-08T03:56:49;3.45;;;2.00;;
23175;SDS011;19910;42.652;23.332;2023-03-08T03:59:17;4.88;;;3.15;;
23175;SDS011;19910;42.652;23.332;2023-03-08T04:01:43;13.48;;;3.28;;
23175;SDS011;19910;42.652;23.332;2023-03-08T04:04:10;5.22;;;2.67;;
23175;SDS011;19910;42.652;23.332;2023-03-08T04:06:39;3.40;;;2.25;;
23175;SDS011;19910;42.652;23.332;2023-03-08T04:09:06;5.40;;;2.67;;
23175;SDS011;19910;42.652;23.332;2023-03-08T04:11:38;9.68;;;5.70;;
23175;SDS011;19910;42.652;23.332;2023-03-08T04:14:05;10.68;;;6.47;;
23175;SDS011;19910;42.652;23.332;2023-03-08T04:16:33;13.80;;;5.28;;
23175;SDS011;19910;42.652;23.332;2023-03-08T04:19:03;5.88;;;2.67;;
23175;SDS011;19910;42.652;23.332;2023-03-08T04:21:31;7.55;;;3.70;;
23175;SDS011;19910;42.652;23.332;2023-03-08T04:23:59;6.50;;;3.20;;
23175;SDS011;19910;42.652;23.332;2023-03-08T04:26:26;7.22;;;3.28;;
23175;SDS011;19910;42.652;23.332;2023-03-08T04:28:53;12.65;;;4.63;;
23175;SDS011;19910;42.652;23.332;2023-03-08T04:31:21;5.03;;;3.00;;
23175;SDS011;19910;42.652;23.332;2023-03-08T04:33:50;3.03;;;2.50;;
23175;SDS011;19910;42.652;23.332;2023-03-08T04:36:17;7.40;;;3.97;;
23175;SDS011;19910;42.652;23.332;2023-03-08T04:38:45;6.93;;;3.40;;
23175;SDS011;19910;42.652;23.332;2023-03-08T04:41:14;9.98;;;4.40;;
23175;SDS011;19910;42.652;23.332;2023-03-08T04:43:43;23.65;;;4.80;;
23175;SDS011;19910;42.652;23.332;2023-03-08T04:46:10;12.55;;;3.70;;
23175;SDS011;19910;42.652;23.332;2023-03-08T04:48:38;6.47;;;3.40;;
23175;SDS011;19910;42.652;23.332;2023-03-08T04:51:05;5.47;;;3.17;;
23175;SDS011;19910;42.652;23.332;2023-03-08T04:53:33;4.40;;;2.47;;
23175;SDS011;19910;42.652;23.332;2023-03-08T04:56:00;5.88;;;3.55;;
23175;SDS011;19910;42.652;23.332;2023-03-08T04:58:29;5.25;;;3.05;;
23175;SDS011;19910;42.652;23.332;2023-03-08T05:00:56;9.30;;;3.33;;
23175;SDS011;19910;42.652;23.332;2023-03-08T05:03:23;4.72;;;2.85;;
23175;SDS011;19910;42.652;23.332;2023-03-08T05:05:51;6.72;;;3.92;;
23175;SDS011;19910;42.652;23.332;2023-03-08T05:08:19;11.35;;;4.30;;
23175;SDS011;19910;42.652;23.332;2023-03-08T05:10:47;5.75;;;3.47;;
23175;SDS011;19910;42.652;23.332;2023-03-08T05:17:02;7.13;;;2.72;;
23175;SDS011;19910;42.652;23.332;2023-03-08T05:19:29;5.40;;;3.58;;
23175;SDS011;19910;42.652;23.332;2023-03-08T05:21:56;5.68;;;3.30;;
23175;SDS011;19910;42.652;23.332;2023-03-08T05:24:22;7.20;;;3.17;;
23175;SDS011;19910;42.652;23.332;2023-03-08T05:26:51;13.13;;;4.13;;
23175;SDS011;19910;42.652;23.332;2023-03-08T05:29:18;19.90;;;8.20;;
23175;SDS011;19910;42.652;23.332;2023-03-08T05:31:44;24.88;;;9.73;;
23175;SDS011;19910;42.652;23.332;2023-03-08T05:34:12;16.10;;;7.07;;
23175;SDS011;19910;42.652;23.332;2023-03-08T05:36:39;14.13;;;6.57;;
23175;SDS011;19910;42.652;23.332;2023-03-08T05:39:09;14.88;;;6.82;;
23175;SDS011;19910;42.652;23.332;2023-03-08T05:41:36;11.15;;;5.60;;
23175;SDS011;19910;42.652;23.332;2023-03-08T05:44:03;13.00;;;5.93;;
23175;SDS011;19910;42.652;23.332;2023-03-08T05:46:30;17.80;;;6.38;;
23175;SDS011;19910;42.652;23.332;2023-03-08T05:48:56;14.90;;;7.35;;
23175;SDS011;19910;42.652;23.332;2023-03-08T05:51:24;19.25;;;7.35;;
23175;SDS011;19910;42.652;23.332;2023-03-08T05:53:51;13.02;;;5.53;;
23175;SDS011;19910;42.652;23.332;2023-03-08T05:56:20;11.75;;;5.25;;
23175;SDS011;19910;42.652;23.332;2023-03-08T05:58:48;11.75;;;4.53;;
23175;SDS011;19910;42.652;23.332;2023-03-08T06:01:17;8.95;;;4.93;;
23175;SDS011;19910;42.652;23.332;2023-03-08T06:03:45;15.45;;;4.90;;
23175;SDS011;19910;42.652;23.332;2023-03-08T06:06:13;11.88;;;4.60;;
23175;SDS011;19910;42.652;23.332;2023-03-08T06:08:42;16.20;;;4.90;;
23175;SDS011;19910;42.652;23.332;2023-03-08T06:11:09;18.13;;;5.63;;
23175;SDS011;19910;42.652;23.332;2023-03-08T06:13:36;17.25;;;5.30;;
23175;SDS011;19910;42.652;23.332;2023-03-08T06:16:04;21.98;;;5.50;;
23175;SDS011;19910;42.652;23.332;2023-03-08T06:18:32;14.20;;;6.10;;
23175;SDS011;19910;42.652;23.332;2023-03-08T06:21:01;20.52;;;7.03;;
23175;SDS011;19910;42.652;23.332;2023-03-08T06:23:30;16.30;;;6.90;;
23175;SDS011;19910;42.652;23.332;2023-03-08T06:25:59;14.35;;;6.53;;
23175;SDS011;19910;42.652;23.332;2023-03-08T06:28:28;17.08;;;6.47;;
23175;SDS011;19910;42.652;23.332;2023-03-08T06:30:56;22.25;;;7.13;;
23175;SDS011;19910;42.652;23.332;2023-03-08T06:33:23;17.65;;;6.93;;
23175;SDS011;19910;42.652;23.332;2023-03-08T06:35:54;13.63;;;6.45;;
23175;SDS011;19910;42.652;23.332;2023-03-08T06:38:22;11.93;;;5.13;;
23175;SDS011;19910;42.652;23.332;2023-03-08T06:40:49;15.23;;;6.60;;
23175;SDS011;19910;42.652;23.332;2023-03-08T06:43:17;15.73;;;6.03;;
23175;SDS011;19910;42.652;23.332;2023-03-08T06:45:45;6.55;;;3.70;;
23175;SDS011;19910;42.652;23.332;2023-03-08T06:48:12;14.13;;;4.70;;
23175;SDS011;19910;42.652;23.332;2023-03-08T06:50:38;9.98;;;4.25;;
23175;SDS011;19910;42.652;23.332;2023-03-08T06:53:06;6.97;;;3.72;;
23175;SDS011;19910;42.652;23.332;2023-03-08T06:55:33;13.10;;;7.55;;
23175;SDS011;19910;42.652;23.332;2023-03-08T06:58:00;12.55;;;5.90;;
23175;SDS011;19910;42.652;23.332;2023-03-08T07:00:28;14.15;;;5.28;;
23175;SDS011;19910;42.652;23.332;2023-03-08T07:02:55;7.28;;;4.40;;
23175;SDS011;19910;42.652;23.332;2023-03-08T07:05:22;6.47;;;3.67;;
23175;SDS011;19910;42.652;23.332;2023-03-08T07:07:49;5.40;;;3.22;;
23175;SDS011;19910;42.652;23.332;2023-03-08T07:10:16;10.85;;;3.92;;
23175;SDS011;19910;42.652;23.332;2023-03-08T07:12:45;7.75;;;3.70;;
23175;SDS011;19910;42.652;23.332;2023-03-08T07:15:15;14.45;;;5.40;;
23175;SDS011;19910;42.652;23.332;2023-03-08T07:17:45;9.63;;;4.82;;
23175;SDS011;19910;42.652;23.332;2023-03-08T07:20:13;10.95;;;5.65;;
23175;SDS011;19910;42.652;23.332;2023-03-08T07:22:42;11.80;;;5.82;;
23175;SDS011;19910;42.652;23.332;2023-03-08T07:25:10;13.82;;;5.60;;
23175;SDS011;19910;42.652;23.332;2023-03-08T07:27:37;7.60;;;4.18;;
23175;SDS011;19910;42.652;23.332;2023-03-08T07:30:04;9.68;;;5.03;;
23175;SDS011;19910;42.652;23.332;2023-03-08T07:32:33;8.45;;;4.07;;
23175;SDS011;19910;42.652;23.332;2023-03-08T07:35:02;14.35;;;4.57;;
23175;SDS011;19910;42.652;23.332;2023-03-08T07:37:29;10.18;;;5.13;;
23175;SDS011;19910;42.652;23.332;2023-03-08T07:39:56;8.65;;;4.05;;
23175;SDS011;19910;42.652;23.332;2023-03-08T07:42:23;11.20;;;5.68;;
23175;SDS011;19910;42.652;23.332;2023-03-08T07:44:51;11.50;;;5.60;;
23175;SDS011;19910;42.652;23.332;2023-03-08T07:47:18;7.53;;;3.30;;
23175;SDS011;19910;42.652;23.332;2023-03-08T07:49:45;7.80;;;3.97;;
23175;SDS011;19910;42.652;23.332;2023-03-08T07:52:13;11.88;;;3.83;;
23175;SDS011;19910;42.652;23.332;2023-03-08T07:54:40;6.50;;;4.15;;
23175;SDS011;19910;42.652;23.332;2023-03-08T07:57:09;13.50;;;6.13;;
23175;SDS011;19910;42.652;23.332;2023-03-08T07:59:38;9.65;;;5.38;;
23175;SDS011;19910;42.652;23.332;2023-03-08T08:02:05;7.72;;;3.75;;
23175;SDS011;19910;42.652;23.332;2023-03-08T08:04:33;7.35;;;3.85;;
23175;SDS011;19910;42.652;23.332;2023-03-08T08:07:00;11.93;;;5.70;;
23175;SDS011;19910;42.652;23.332;2023-03-08T08:09:29;11.10;;;6.85;;
23175;SDS011;19910;42.652;23.332;2023-03-08T08:11:56;9.05;;;4.55;;
23175;SDS011;19910;42.652;23.332;2023-03-08T08:14:23;6.97;;;3.40;;
23175;SDS011;19910;42.652;23.332;2023-03-08T08:16:49;9.65;;;4.82;;
23175;SDS011;19910;42.652;23.332;2023-03-08T08:19:16;8.32;;;4.47;;
23175;SDS011;19910;42.652;23.332;2023-03-08T08:21:43;8.70;;;4.40;;
23175;SDS011;19910;42.652;23.332;2023-03-08T08:24:10;11.02;;;4.53;;
23175;SDS011;19910;42.652;23.332;2023-03-08T08:26:38;10.00;;;4.35;;
23175;SDS011;19910;42.652;23.332;2023-03-08T08:29:05;8.25;;;4.38;;
23175;SDS011;19910;42.652;23.332;2023-03-08T08:31:32;7.40;;;3.13;;
23175;SDS011;19910;42.652;23.332;2023-03-08T08:33:59;9.00;;;3.92;;
23175;SDS011;19910;42.652;23.332;2023-03-08T08:36:27;9.75;;;5.80;;
23175;SDS011;19910;42.652;23.332;2023-03-08T08:38:54;12.70;;;6.18;;
23175;SDS011;19910;42.652;23.332;2023-03-08T08:41:21;12.43;;;5.10;;
23175;SDS011;19910;42.652;23.332;2023-03-08T08:43:50;11.00;;;4.30;;
23175;SDS011;19910;42.652;23.332;2023-03-08T08:46:20;7.45;;;4.60;;
23175;SDS011;19910;42.652;23.332;2023-03-08T08:48:47;10.65;;;4.57;;
23175;SDS011;19910;42.652;23.332;2023-03-08T08:51:14;16.27;;;5.85;;
23175;SDS011;19910;42.652;23.332;2023-03-08T08:53:41;17.15;;;6.38;;
23175;SDS011;19910;42.652;23.332;2023-03-08T08:56:09;8.45;;;4.65;;
23175;SDS011;19910;42.652;23.332;2023-03-08T08:58:37;12.00;;;4.63;;
23175;SDS011;19910;42.652;23.332;2023-03-08T09:01:11;14.48;;;5.50;;
23175;SDS011;19910;42.652;23.332;2023-03-08T09:03:38;11.32;;;6.15;;
23175;SDS011;19910;42.652;23.332;2023-03-08T09:06:05;14.73;;;5.50;;
23175;SDS011;19910;42.652;23.332;2023-03-08T09:08:32;10.82;;;5.00;;
23175;SDS011;19910;42.652;23.332;2023-03-08T09:11:01;14.40;;;5.45;;
23175;SDS011;19910;42.652;23.332;2023-03-08T09:13:30;8.52;;;4.82;;
23175;SDS011;19910;42.652;23.332;2023-03-08T09:15:58;12.45;;;4.88;;
23175;SDS011;19910;42.652;23.332;2023-03-08T09:18:26;12.50;;;6.55;;
23175;SDS011;19910;42.652;23.332;2023-03-08T09:20:53;10.90;;;6.22;;
23175;SDS011;19910;42.652;23.332;2023-03-08T09:23:20;14.05;;;6.82;;
23175;SDS011;19910;42.652;23.332;2023-03-08T09:25:53;7.68;;;4.45;;
23175;SDS011;19910;42.652;23.332;2023-03-08T09:28:23;14.93;;;5.32;;
23175;SDS011;19910;42.652;23.332;2023-03-08T09:30:50;10.55;;;5.40;;
23175;SDS011;19910;42.652;23.332;2023-03-08T09:33:17;12.15;;;6.43;;
23175;SDS011;19910;42.652;23.332;2023-03-08T09:35:54;11.82;;;6.47;;
23175;SDS011;19910;42.652;23.332;2023-03-08T09:38:21;12.40;;;6.10;;
23175;SDS011;19910;42.652;23.332;2023-03-08T09:40:52;11.32;;;6.40;;
23175;SDS011;19910;42.652;23.332;2023-03-08T09:43:34;11.50;;;6.45;;
23175;SDS011;19910;42.652;23.332;2023-03-08T09:46:12;13.40;;;6.50;;
23175;SDS011;19910;42.652;23.332;2023-03-08T09:48:42;12.85;;;7.85;;
23175;SDS011;19910;42.652;23.332;2023-03-08T09:51:15;15.05;;;7.10;;
23175;SDS011;19910;42.652;23.332;2023-03-08T09:53:47;16.73;;;7.68;;
23175;SDS011;19910;42.652;23.332;2023-03-08T09:56:19;15.07;;;7.03;;
23175;SDS011;19910;42.652;23.332;2023-03-08T09:58:52;12.82;;;7.28;;
23175;SDS011;19910;42.652;23.332;2023-03-08T10:01:25;11.70;;;6.50;;
23175;SDS011;19910;42.652;23.332;2023-03-08T10:04:03;13.50;;;6.80;;
23175;SDS011;19910;42.652;23.332;2023-03-08T10:06:41;49.53;;;22.67;;
23175;SDS011;19910;42.652;23.332;2023-03-08T10:09:17;20.50;;;8.60;;
23175;SDS011;19910;42.652;23.332;2023-03-08T10:11:53;16.80;;;7.32;;
23175;SDS011;19910;42.652;23.332;2023-03-08T10:14:26;15.90;;;6.18;;
23175;SDS011;19910;42.652;23.332;2023-03-08T10:16:56;12.52;;;5.95;;
23175;SDS011;19910;42.652;23.332;2023-03-08T10:19:27;12.23;;;6.82;;
23175;SDS011;19910;42.652;23.332;2023-03-08T10:22:02;13.43;;;7.10;;
23175;SDS011;19910;42.652;23.332;2023-03-08T10:24:48;9.73;;;6.25;;
23175;SDS011;19910;42.652;23.332;2023-03-08T10:27:20;8.45;;;5.90;;
23175;SDS011;19910;42.652;23.332;2023-03-08T10:29:49;12.25;;;6.75;;
23175;SDS011;19910;42.652;23.332;2023-03-08T10:32:16;11.07;;;6.97;;
23175;SDS011;19910;42.652;23.332;2023-03-08T10:34:43;10.82;;;7.22;;
23175;SDS011;19910;42.652;23.332;2023-03-08T10:37:13;11.18;;;6.80;;
23175;SDS011;19910;42.652;23.332;2023-03-08T10:39:47;15.05;;;7.30;;
23175;SDS011;19910;42.652;23.332;2023-03-08T10:42:19;15.77;;;6.88;;
23175;SDS011;19910;42.652;23.332;2023-03-08T10:44:52;14.82;;;7.50;;
23175;SDS011;19910;42.652;23.332;2023-03-08T10:47:22;13.63;;;7.45;;
23175;SDS011;19910;42.652;23.332;2023-03-08T10:50:02;15.82;;;7.13;;
23175;SDS011;19910;42.652;23.332;2023-03-08T10:52:31;10.95;;;7.60;;
23175;SDS011;19910;42.652;23.332;2023-03-08T10:54:59;12.27;;;6.43;;
23175;SDS011;19910;42.652;23.332;2023-03-08T10:57:27;15.63;;;6.80;;
23175;SDS011;19910;42.652;23.332;2023-03-08T10:59:54;9.57;;;6.18;;
23175;SDS011;19910;42.652;23.332;2023-03-08T11:02:24;10.30;;;5.32;;
23175;SDS011;19910;42.652;23.332;2023-03-08T11:04:52;13.90;;;5.65;;
23175;SDS011;19910;42.652;23.332;2023-03-08T11:07:21;9.35;;;5.20;;
23175;SDS011;19910;42.652;23.332;2023-03-08T11:10:02;13.63;;;5.60;;
23175;SDS011;19910;42.652;23.332;2023-03-08T11:12:39;11.27;;;6.32;;
23175;SDS011;19910;42.652;23.332;2023-03-08T11:15:11;13.93;;;5.88;;
23175;SDS011;19910;42.652;23.332;2023-03-08T11:17:39;10.85;;;5.93;;
23175;SDS011;19910;42.652;23.332;2023-03-08T11:20:13;8.57;;;5.03;;
23175;SDS011;19910;42.652;23.332;2023-03-08T11:22:57;12.27;;;5.75;;
23175;SDS011;19910;42.652;23.332;2023-03-08T11:25:43;11.77;;;5.70;;
23175;SDS011;19910;42.652;23.332;2023-03-08T11:28:15;11.02;;;5.35;;
23175;SDS011;19910;42.652;23.332;2023-03-08T11:30:57;9.27;;;5.53;;
23175;SDS011;19910;42.652;23.332;2023-03-08T11:33:37;9.75;;;5.32;;
23175;SDS011;19910;42.652;23.332;2023-03-08T11:36:22;10.88;;;5.53;;
23175;SDS011;19910;42.652;23.332;2023-03-08T11:38:56;11.35;;;5.47;;
23175;SDS011;19910;42.652;23.332;2023-03-08T11:41:29;8.35;;;4.43;;
23175;SDS011;19910;42.652;23.332;2023-03-08T11:47:03;10.98;;;5.28;;
23175;SDS011;19910;42.652;23.332;2023-03-08T11:49:50;12.38;;;4.88;;
23175;SDS011;19910;42.652;23.332;2023-03-08T11:52:26;2.67;;;1.88;;
23175;SDS011;19910;42.652;23.332;2023-03-08T11:55:06;2.70;;;1.55;;
23175;SDS011;19910;42.652;23.332;2023-03-08T11:57:50;2.47;;;1.60;;
23175;SDS011;19910;42.652;23.332;2023-03-08T12:00:23;5.57;;;2.15;;
23175;SDS011;19910;42.652;23.332;2023-03-08T12:02:56;5.68;;;1.90;;
23175;SDS011;19910;42.652;23.332;2023-03-08T12:05:32;1.88;;;1.30;;
23175;SDS011;19910;42.652;23.332;2023-03-08T12:08:03;3.85;;;1.40;;
23175;SDS011;19910;42.652;23.332;2023-03-08T12:10:40;6.60;;;2.20;;
23175;SDS011;19910;42.652;23.332;2023-03-08T12:13:13;7.80;;;2.85;;
23175;SDS011;19910;42.652;23.332;2023-03-08T12:15:46;4.13;;;2.75;;
23175;SDS011;19910;42.652;23.332;2023-03-08T12:18:18;8.35;;;3.10;;
23175;SDS011;19910;42.652;23.332;2023-03-08T12:20:51;9.43;;;2.92;;
23175;SDS011;19910;42.652;23.332;2023-03-08T12:23:23;6.68;;;2.13;;
23175;SDS011;19910;42.652;23.332;2023-03-08T12:25:57;4.07;;;2.33;;
23175;SDS011;19910;42.652;23.332;2023-03-08T12:28:30;5.32;;;2.15;;
23175;SDS011;19910;42.652;23.332;2023-03-08T12:33:49;8.75;;;2.47;;
23175;SDS011;19910;42.652;23.332;2023-03-08T12:36:17;3.28;;;2.10;;
23175;SDS011;19910;42.652;23.332;2023-03-08T12:38:46;4.15;;;1.40;;
23175;SDS011;19910;42.652;23.332;2023-03-08T12:41:20;2.05;;;1.23;;
23175;SDS011;19910;42.652;23.332;2023-03-08T12:44:01;1.90;;;1.30;;
23175;SDS011;19910;42.652;23.332;2023-03-08T12:46:43;4.22;;;1.92;;
23175;SDS011;19910;42.652;23.332;2023-03-08T12:49:19;3.60;;;1.70;;
23175;SDS011;19910;42.652;23.332;2023-03-08T12:51:55;3.70;;;1.48;;
23175;SDS011;19910;42.652;23.332;2023-03-08T12:54:25;3.25;;;1.40;;
23175;SDS011;19910;42.652;23.332;2023-03-08T12:56:56;3.33;;;1.60;;
23175;SDS011;19910;42.652;23.332;2023-03-08T12:59:31;3.22;;;1.52;;
23175;SDS011;19910;42.652;23.332;2023-03-08T13:02:02;6.53;;;1.50;;
23175;SDS011;19910;42.652;23.332;2023-03-08T13:05:00;7.50;;;1.80;;
23175;SDS011;19910;42.652;23.332;2023-03-08T13:07:46;4.20;;;1.83;;
23175;SDS011;19910;42.652;23.332;2023-03-08T13:10:24;2.47;;;1.70;;
23175;SDS011;19910;42.652;23.332;2023-03-08T13:16:02;4.18;;;1.40;;
23175;SDS011;19910;42.652;23.332;2023-03-08T13:18:30;1.30;;;1.20;;
23175;SDS011;19910;42.652;23.332;2023-03-08T13:21:02;3.88;;;1.40;;
23175;SDS011;19910;42.652;23.332;2023-03-08T13:23:41;3.58;;;1.65;;
23175;SDS011;19910;42.652;23.332;2023-03-08T13:26:25;5.30;;;1.52;;
23175;SDS011;19910;42.652;23.332;2023-03-08T13:29:11;2.50;;;1.60;;
23175;SDS011;19910;42.652;23.332;2023-03-08T13:31:41;2.78;;;2.10;;
23175;SDS011;19910;42.652;23.332;2023-03-08T13:34:23;3.38;;;1.20;;
23175;SDS011;19910;42.652;23.332;2023-03-08T13:36:53;2.78;;;1.40;;
23175;SDS011;19910;42.652;23.332;2023-03-08T13:39:20;3.38;;;1.30;;
23175;SDS011;19910;42.652;23.332;2023-03-08T13:41:49;3.42;;;1.40;;
23175;SDS011;19910;42.652;23.332;2023-03-08T13:44:16;3.42;;;1.70;;
23175;SDS011;19910;42.652;23.332;2023-03-08T13:46:45;3.30;;;1.35;;
23175;SDS011;19910;42.652;23.332;2023-03-08T13:49:15;3.05;;;1.50;;
23175;SDS011;19910;42.652;23.332;2023-03-08T13:51:46;3.15;;;1.60;;
23175;SDS011;19910;42.652;23.332;2023-03-08T13:54:16;2.10;;;1.35;;
23175;SDS011;19910;42.652;23.332;2023-03-08T13:56:53;3.05;;;1.17;;
23175;SDS011;19910;42.652;23.332;2023-03-08T13:59:20;4.32;;;1.30;;
23175;SDS011;19910;42.652;23.332;2023-03-08T14:01:49;2.25;;;1.30;;
23175;SDS011;19910;42.652;23.332;2023-03-08T14:04:18;2.47;;;1.48;;
23175;SDS011;19910;42.652;23.332;2023-03-08T14:06:49;4.95;;;1.48;;
23175;SDS011;19910;42.652;23.332;2023-03-08T14:09:18;3.03;;;1.50;;
23175;SDS011;19910;42.652;23.332;2023-03-08T14:11:46;2.60;;;1.73;;
23175;SDS011;19910;42.652;23.332;2023-03-08T14:14:23;5.25;;;1.92;;
23175;SDS011;19910;42.652;23.332;2023-03-08T14:16:56;3.92;;;1.38;;
23175;SDS011;19910;42.652;23.332;2023-03-08T14:19:24;4.50;;;1.48;;
23175;SDS011;19910;42.652;23.332;2023-03-08T14:21:53;1.80;;;1.45;;
23175;SDS011;19910;42.652;23.332;2023-03-08T14:24:25;4.15;;;1.48;;
23175;SDS011;19910;42.652;23.332;2023-03-08T14:26:56;4.30;;;1.40;;
23175;SDS011;19910;42.652;23.332;2023-03-08T14:29:25;10.32;;;1.67;;
23175;SDS011;19910;42.652;23.332;2023-03-08T14:32:05;4.50;;;1.42;;
23175;SDS011;19910;42.652;23.332;2023-03-08T14:34:48;5.38;;;1.90;;
23175;SDS011;19910;42.652;23.332;2023-03-08T14:37:18;1.55;;;1.40;;
23175;SDS011;19910;42.652;23.332;2023-03-08T14:39:48;5.03;;;1.90;;
23175;SDS011;19910;42.652;23.332;2023-03-08T14:42:17;3.58;;;1.60;;
23175;SDS011;19910;42.652;23.332;2023-03-08T14:44:48;1.35;;;1.08;;
23175;SDS011;19910;42.652;23.332;2023-03-08T14:47:20;6.57;;;1.30;;
23175;SDS011;19910;42.652;23.332;2023-03-08T14:49:53;2.05;;;1.15;;
23175;SDS011;19910;42.652;23.332;2023-03-08T14:52:21;5.47;;;1.45;;
23175;SDS011;19910;42.652;23.332;2023-03-08T14:54:48;1.65;;;1.13;;
23175;SDS011;19910;42.652;23.332;2023-03-08T14:57:15;1.98;;;1.20;;
23175;SDS011;19910;42.652;23.332;2023-03-08T14:59:43;1.40;;;1.13;;
23175;SDS011;19910;42.652;23.332;2023-03-08T15:02:11;2.17;;;1.33;;